Flight Track Log - Related Links

Times and Time Zones

All times are in EST time to prevent confusion due to time zone crossing. See the CPT8773 flight status page for this flight to view local times or setup timezone preferences in your user account.

Time Position Orientation Groundspeed Altitude Reporting Facility
EST Latitude Longitude Course Direction KTS MPH feet Rate Location/Type
Mon 09:17:08 42.9308 -106.4775 349° North 108 124 7,700  Level Denver Center
Mon 09:18:09 42.9575 -106.4744 North 103 119 8,500 836 Climbing Denver Center
Mon 09:19:10 42.9886 -106.4703 North 102 117 9,400 689 Climbing Denver Center
Mon 09:20:11 43.0147 -106.4653 North 100 115 9,900 496 Climbing Denver Center
Mon 09:21:00 43.0539 -106.6869 307° West  Level Estimated
Mon 09:21:11 43.0406 -106.4625 North 99 114 10,400  Level Denver Center
Mon 09:22:00 43.0896 -106.6965 349° North  Level FlightAware Approximate
Mon 09:22:12 43.0697 -106.4586 North 97 112 11,100  Level Denver Center
Mon 09:23:13 43.0908 -106.4589 359° North 89 102 11,600 393 Climbing Denver Center
Mon 09:24:14 43.1142 -106.4589 360° North 87 100 11,900 98 Climbing Denver Center
Mon 09:25:15 43.1508 -106.4583 North 107 123 11,800 -50 Descending Denver Center
Mon 09:26:15 43.1853 -106.4581 360° North 122 140 11,800 50 Level Denver Center
Mon 09:27:16 43.2178 -106.4622 355° North 124 143 11,900 49 Climbing Denver Center
Mon 09:28:17 43.2556 -106.4806 341° North 134 154 11,900  Level Denver Center
Mon 09:29:18 43.2628 -106.5278 282° West 134 154 11,900 -49 Level Denver Center
Mon 09:30:19 43.2692 -106.5750 281° West 131 151 11,800 -50 Descending Denver Center
Mon 09:31:19 43.2772 -106.6269 282° West 127 146 11,800  Level Denver Center
Mon 09:32:17 43.2892 -106.6675 292° West 120 138 11,800  Level Salt Lake Center
Mon 09:33:18 43.3092 -106.7000 310° West 117 135 11,800 49 Level Salt Lake Center
Mon 09:34:19 43.3275 -106.7347 306° West 117 135 11,900 49 Climbing Salt Lake Center
Mon 09:35:20 43.3500 -106.7753 307° West 119 137 11,900 -50 Level Salt Lake Center
Mon 09:36:20 43.3681 -106.8097 306° West 117 135 11,800  Descending Salt Lake Center
Mon 09:37:21 43.3836 -106.8450 301° West 115 132 11,900  Climbing Salt Lake Center
Mon 09:38:22 43.4047 -106.8819 308° West 111 128 11,800  Descending Salt Lake Center
Mon 09:39:23 43.4208 -106.9133 305° West 107 123 11,900  Climbing Salt Lake Center
Mon 09:40:24 43.4389 -106.9439 309° West 104 120 11,800  Descending Salt Lake Center
Mon 09:41:25 43.4553 -106.9800 302° West 109 125 11,900 99 Climbing Salt Lake Center
Mon 09:42:25 43.4697 -107.0056 308° West 90 104 12,000  Climbing Salt Lake Center
Mon 09:43:26 43.4886 -107.0489 301° West 122 140 11,900 -49 Descending Salt Lake Center
Mon 09:44:27 43.5086 -107.0833 309° West 118 136 11,900  Level Salt Lake Center
Mon 09:45:28 43.5267 -107.1144 309° West 108 124 11,900 49 Level Salt Lake Center
Mon 09:46:29 43.5403 -107.1431 303° West 95 109 12,000  Climbing Salt Lake Center
Mon 09:47:30 43.5583 -107.1714 311° West 97 112 11,900 -49 Descending Salt Lake Center
Mon 09:48:31 43.5789 -107.2106 306° West 103 119 11,900 49 Level Salt Lake Center
Mon 09:49:32 43.5917 -107.2350 306° West 94 108 12,000 49 Climbing Salt Lake Center
Mon 09:50:33 43.6072 -107.2625 308° West 90 104 12,000  Level Salt Lake Center
Mon 09:51:34 43.6258 -107.2953 308° West 97 112 12,000  Level Salt Lake Center
Mon 09:52:35 43.6450 -107.3308 307° West 106 122 12,000  Level Salt Lake Center
Mon 09:53:36 43.6636 -107.3664 306° West 110 127 12,000  Level Salt Lake Center
Mon 09:54:37 43.6811 -107.4039 303° West 113 130 12,000  Level Salt Lake Center
Mon 09:55:38 43.6994 -107.4386 306° West 114 131 12,000  Level Salt Lake Center
Mon 09:56:39 43.7186 -107.4736 307° West 114 131 12,000  Level Salt Lake Center
Mon 09:57:40 43.7375 -107.5100 306° West 115 132 12,000  Level Salt Lake Center
Mon 09:58:41 43.7564 -107.5478 305° West 117 135 12,000  Level Salt Lake Center
Mon 09:59:43 43.7758 -107.5844 306° West 118 136 12,000  Level Salt Lake Center
Mon 10:00:44 43.7989 -107.6286 306° West 118 136 12,000  Level Salt Lake Center
Mon 10:01:45 43.8189 -107.6667 306° West 119 137 12,000  Level Salt Lake Center
Mon 10:02:46 43.8394 -107.7022 309° West 120 138 12,000  Level Salt Lake Center
Mon 10:03:47 43.8597 -107.7406 306° West 120 138 12,000  Level Salt Lake Center
Mon 10:04:48 43.8794 -107.7789 306° West 122 140 12,000  Level Salt Lake Center
Mon 10:05:49 43.8986 -107.8175 305° West 122 140 12,000  Level Salt Lake Center
Mon 10:06:51 43.9200 -107.8558 308° West 123 142 12,000  Level Salt Lake Center
Mon 10:07:52 43.9403 -107.8944 306° West 124 143 12,000  Level Salt Lake Center
Mon 10:08:53 43.9586 -107.9319 304° West 121 139 12,000  Level Salt Lake Center
Mon 10:09:54 43.9786 -107.9694 307° West 121 139 12,000  Level Salt Lake Center
Mon 10:10:55 43.9981 -108.0069 306° West 120 138 12,000 -49 Level Salt Lake Center
Mon 10:11:57 44.0219 -108.0519 306° West 121 139 11,900 -49 Descending Salt Lake Center
Mon 10:12:58 44.0414 -108.0886 306° West 120 138 11,900  Level Salt Lake Center
Mon 10:13:59 44.0614 -108.1267 306° West 120 138 11,900  Level Salt Lake Center
Mon 10:15:00 44.0808 -108.1650 305° West 121 139 11,900  Level Salt Lake Center
Mon 10:16:02 44.1006 -108.2022 306° West 121 139 11,900  Level Salt Lake Center
Mon 10:17:03 44.1200 -108.2383 307° West 119 137 11,900  Level Salt Lake Center
Mon 10:18:04 44.1383 -108.2758 304° West 118 136 11,900  Level Salt Lake Center
Mon 10:19:05 44.1572 -108.3131 305° West 118 136 11,900  Level Salt Lake Center
Mon 10:20:06 44.1764 -108.3500 306° West 118 136 11,900  Level Salt Lake Center
Mon 10:21:08 44.1953 -108.3869 306° West 118 136 11,900  Level Salt Lake Center
Mon 10:22:09 44.2186 -108.4322 306° West 118 136 11,900  Level Salt Lake Center
Mon 10:23:10 44.2375 -108.4706 305° West 119 137 11,900 -148 Level Salt Lake Center
Mon 10:24:11 44.2575 -108.5097 305° West 121 139 11,600 -341 Descending Salt Lake Center
Mon 10:25:13 44.2794 -108.5497 307° West 124 143 11,200 -390 Descending Salt Lake Center
Mon 10:26:14 44.3025 -108.5942 306° West 131 151 10,800 -393 Descending Salt Lake Center
Mon 10:27:15 44.3267 -108.6408 306° West 138 159 10,400 -341 Descending Salt Lake Center
Mon 10:28:17 44.3503 -108.6892 304° West 145 167 10,100 -290 Descending Salt Lake Center

Login

Don't have an account? Register now (free) for customized features, flight alerts, and more!